Strona główna
METAR-TAF:

METAR-TAF

Lotnisko :

Port lotniczy Adrar

Adrar, Algieria

Szerokość geograficzna: 27-53N, Długość geograficzna: 000-17W, wysokość: 263 m

Aktualna obserwacja pogody

Raport powstał 1 godzina i 5 minut temu, godzina 13:00 UTC
Wiatr 5 kt od południowy wschód
Temperatura 24°C
Wilgotność 20%
Ciśnienie 1019 hPa
Widzialność 10 km lub więcej
Brak chmur poniżej 1500 m i brak chmur cumulonimbus

METAR: DAUA 151300Z 14005KT CAVOK 24/M00 Q1019

czas: 15:05 (14:05 UTC)

Prognoza

Raport powstał 3 godziny i 5 minut temu, godzina 11:00 UTC
Prognoza ważna od 15 godzina 12 UTC do 16 godzina 12 UTC
Wiatr 8 kt od południowy wschód
Widzialność 10 km lub więcej
Brak chmur poniżej 1500 m i brak chmur cumulonimbus

TAF: DAUA 151100Z 1512/1612 14008KT CAVOK

Obserwacja i prognoza pogody dla ponad 4000 lotnisk (raport METAR i TAF).

Dostępne stacje oznaczono żółtymi i czerwonymi punktami na mapie.

Najedź kursorem aby zobaczyć nazwę stacji.

Kliknij aby zobaczyć obserwacje i prognozy pogody.

Aby zmienić mapę: kliknij na zielony przycisk z czarnym krzyżykiem, aby powiększyć; na zielony przycisk z myślnikiem, aby pomniejszyć; na zielone strzałki, aby przejść do map sąsiednich.


METAR-TAF: